Etusivu
METAR-TAF:

METAR-TAF

Lentoasemat :

Gaspé, Quebec, Kanada

Leveyspiiri: 48-46N, Pituuspiiri: 064-29W, korkeus merenpinnasta: 33 m

Tämänhetkinen sää

Tämä raportti tehtiin 19 minuuttia sitten, kello 10.00 UTC
Tuuli 5 kn lännestä/luoteesta
Lämpötila -5°C
Kosteus 86%
Ilmanpaine 1000 hPa
Näkyvyys: 24.1 km
Hajonneita pilviä 6000 ft:n korkeudessa

METAR: CYGP 061000Z 29005KT 15SM BKN060 M05/M07 A2953 RMK SC6 SLP003

Aika: 05:19 (10:19 UTC)

Sääennuste

Tämä raportti tehtiin 2 tuntia ja 41 minuuttia sitten, kello 07.38 UTC
Ennuste voimassa 06. päivästä klo 08 UTC - 06. päivään klo 20 UTC
Tuuli 3 kn eri suunnista
Näkyvyys: 10 km
Hajanaisia pilviä 4000 ft:n korkeudessa
Hajonneita pilviä 9000 ft:n korkeudessa
Tulossa
06. päivästä klo 13 UTC - 06. päivään klo 15 UTC
Tuuli 12 kn lännestä

TAF: CYGP 060738Z 0608/0620 VRB03KT P6SM SCT040 BKN090 BECMG 0613/0615 27012KT RMK NXT FCST BY 061400Z

Säähavainnot ja -ennusteet yli 4000 lentoasemalta (METAR- ja TAF-raportit).

Käytössä olevat sääasemat on merkitty karttaan keltaisilla ja punaisilla pisteillä.

Aseta hiiri pisteen päälle nähdäksesi sääaseman nimen.

Klikkaa sitten nähdäksesi säähavainnot ja -ennusteet.

Kartan vaihtaminen: klikkaa mustalla rastilla varustettuja vihreitä pisteitä, niin voit zoomata sisään; viivalla varustettua vihreää pistettä, niin voit zoomata ulos tai vihreitä nuolia, niin pääset viereisille kartoille.


METAR-TAF: